sensor_id;sensor_type;location;lat;lon;timestamp;temperature;humidity
26186;DHT22;20067;48.764;9.176;2022-08-19T00:00:12;22.50;79.70
26186;DHT22;20067;48.764;9.176;2022-08-19T00:02:39;22.50;78.90
26186;DHT22;20067;48.764;9.176;2022-08-19T00:05:06;22.40;79.60
26186;DHT22;20067;48.764;9.176;2022-08-19T00:07:32;22.40;79.50
26186;DHT22;20067;48.764;9.176;2022-08-19T00:09:58;22.40;79.80
26186;DHT22;20067;48.764;9.176;2022-08-19T00:12:23;22.40;79.30
26186;DHT22;20067;48.764;9.176;2022-08-19T00:14:49;22.40;79.40
26186;DHT22;20067;48.764;9.176;2022-08-19T00:17:14;22.40;79.80
26186;DHT22;20067;48.764;9.176;2022-08-19T00:19:40;22.40;79.50
26186;DHT22;20067;48.764;9.176;2022-08-19T00:22:06;22.30;79.30
26186;DHT22;20067;48.764;9.176;2022-08-19T00:24:34;22.30;79.70
26186;DHT22;20067;48.764;9.176;2022-08-19T00:27:00;22.30;80.60
26186;DHT22;20067;48.764;9.176;2022-08-19T00:29:27;22.40;80.40
26186;DHT22;20067;48.764;9.176;2022-08-19T00:31:54;22.50;79.10
26186;DHT22;20067;48.764;9.176;2022-08-19T00:34:22;22.50;79.70
26186;DHT22;20067;48.764;9.176;2022-08-19T00:36:48;22.50;78.90
26186;DHT22;20067;48.764;9.176;2022-08-19T00:39:15;22.50;79.00
26186;DHT22;20067;48.764;9.176;2022-08-19T00:41:43;22.50;79.30
26186;DHT22;20067;48.764;9.176;2022-08-19T00:44:12;22.50;79.70
26186;DHT22;20067;48.764;9.176;2022-08-19T00:46:41;22.50;79.40
26186;DHT22;20067;48.764;9.176;2022-08-19T00:49:16;22.40;79.70
26186;DHT22;20067;48.764;9.176;2022-08-19T00:51:47;22.30;79.40
26186;DHT22;20067;48.764;9.176;2022-08-19T00:54:16;22.30;80.80
26186;DHT22;20067;48.764;9.176;2022-08-19T00:56:42;22.30;79.70
26186;DHT22;20067;48.764;9.176;2022-08-19T00:59:09;22.30;80.00
26186;DHT22;20067;48.764;9.176;2022-08-19T01:01:37;22.30;80.50
26186;DHT22;20067;48.764;9.176;2022-08-19T01:04:03;22.30;80.20
26186;DHT22;20067;48.764;9.176;2022-08-19T01:06:28;22.40;80.40
26186;DHT22;20067;48.764;9.176;2022-08-19T01:08:56;22.40;79.80
26186;DHT22;20067;48.764;9.176;2022-08-19T01:11:22;22.40;80.50
26186;DHT22;20067;48.764;9.176;2022-08-19T01:13:50;22.30;79.80
26186;DHT22;20067;48.764;9.176;2022-08-19T01:16:20;22.10;80.50
26186;DHT22;20067;48.764;9.176;2022-08-19T01:18:46;22.20;80.70
26186;DHT22;20067;48.764;9.176;2022-08-19T01:23:45;22.20;80.80
26186;DHT22;20067;48.764;9.176;2022-08-19T01:26:18;22.40;80.40
26186;DHT22;20067;48.764;9.176;2022-08-19T01:28:46;22.40;80.20
26186;DHT22;20067;48.764;9.176;2022-08-19T01:31:21;22.40;79.40
26186;DHT22;20067;48.764;9.176;2022-08-19T01:33:49;22.30;80.00
26186;DHT22;20067;48.764;9.176;2022-08-19T01:36:29;22.40;79.80
26186;DHT22;20067;48.764;9.176;2022-08-19T01:38:55;22.40;80.40
26186;DHT22;20067;48.764;9.176;2022-08-19T01:41:22;22.40;80.20
26186;DHT22;20067;48.764;9.176;2022-08-19T01:43:49;22.30;80.20
26186;DHT22;20067;48.764;9.176;2022-08-19T01:46:16;22.40;80.20
26186;DHT22;20067;48.764;9.176;2022-08-19T01:48:43;22.40;80.40
26186;DHT22;20067;48.764;9.176;2022-08-19T01:51:11;22.40;80.70
26186;DHT22;20067;48.764;9.176;2022-08-19T01:53:37;22.40;79.90
26186;DHT22;20067;48.764;9.176;2022-08-19T01:56:05;22.30;79.70
26186;DHT22;20067;48.764;9.176;2022-08-19T01:58:38;22.40;80.40
26186;DHT22;20067;48.764;9.176;2022-08-19T02:01:07;22.30;79.80
26186;DHT22;20067;48.764;9.176;2022-08-19T02:03:34;22.40;80.60
26186;DHT22;20067;48.764;9.176;2022-08-19T02:06:02;22.30;80.30
26186;DHT22;20067;48.764;9.176;2022-08-19T02:08:29;22.30;80.60
26186;DHT22;20067;48.764;9.176;2022-08-19T02:10:56;22.20;80.80
26186;DHT22;20067;48.764;9.176;2022-08-19T02:13:22;22.10;81.40
26186;DHT22;20067;48.764;9.176;2022-08-19T02:15:48;22.20;81.60
26186;DHT22;20067;48.764;9.176;2022-08-19T02:18:14;22.20;80.80
26186;DHT22;20067;48.764;9.176;2022-08-19T02:20:42;22.10;80.90
26186;DHT22;20067;48.764;9.176;2022-08-19T02:23:09;22.20;81.10
26186;DHT22;20067;48.764;9.176;2022-08-19T02:25:34;22.10;81.20
26186;DHT22;20067;48.764;9.176;2022-08-19T02:28:00;22.10;81.20
26186;DHT22;20067;48.764;9.176;2022-08-19T02:30:27;22.00;82.20
26186;DHT22;20067;48.764;9.176;2022-08-19T02:32:53;22.00;81.80
26186;DHT22;20067;48.764;9.176;2022-08-19T02:35:18;21.90;81.80
26186;DHT22;20067;48.764;9.176;2022-08-19T02:37:44;21.80;82.20
26186;DHT22;20067;48.764;9.176;2022-08-19T02:40:31;21.70;82.40
26186;DHT22;20067;48.764;9.176;2022-08-19T02:43:04;21.70;83.60
26186;DHT22;20067;48.764;9.176;2022-08-19T02:45:34;21.80;83.00
26186;DHT22;20067;48.764;9.176;2022-08-19T02:48:00;21.70;82.60
26186;DHT22;20067;48.764;9.176;2022-08-19T02:50:26;21.70;83.00
26186;DHT22;20067;48.764;9.176;2022-08-19T02:52:51;21.60;83.20
26186;DHT22;20067;48.764;9.176;2022-08-19T02:55:17;21.60;83.50
26186;DHT22;20067;48.764;9.176;2022-08-19T02:57:42;21.60;83.20
26186;DHT22;20067;48.764;9.176;2022-08-19T03:00:09;21.60;83.50
26186;DHT22;20067;48.764;9.176;2022-08-19T03:02:38;21.60;83.40
26186;DHT22;20067;48.764;9.176;2022-08-19T03:05:04;21.50;83.70
26186;DHT22;20067;48.764;9.176;2022-08-19T03:07:30;21.50;83.80
26186;DHT22;20067;48.764;9.176;2022-08-19T03:09:56;21.40;84.70
26186;DHT22;20067;48.764;9.176;2022-08-19T03:12:21;21.30;84.80
26186;DHT22;20067;48.764;9.176;2022-08-19T03:14:47;21.40;84.70
26186;DHT22;20067;48.764;9.176;2022-08-19T03:17:13;21.40;84.70
26186;DHT22;20067;48.764;9.176;2022-08-19T03:19:39;21.40;84.70
26186;DHT22;20067;48.764;9.176;2022-08-19T03:22:05;21.30;85.30
26186;DHT22;20067;48.764;9.176;2022-08-19T03:24:31;21.30;85.70
26186;DHT22;20067;48.764;9.176;2022-08-19T03:26:58;21.40;86.20
26186;DHT22;20067;48.764;9.176;2022-08-19T03:29:25;21.40;85.70
26186;DHT22;20067;48.764;9.176;2022-08-19T03:31:51;21.40;84.90
26186;DHT22;20067;48.764;9.176;2022-08-19T03:34:24;21.40;85.20
26186;DHT22;20067;48.764;9.176;2022-08-19T03:36:52;21.30;85.30
26186;DHT22;20067;48.764;9.176;2022-08-19T03:39:19;21.30;85.20
26186;DHT22;20067;48.764;9.176;2022-08-19T03:41:46;21.30;85.40
26186;DHT22;20067;48.764;9.176;2022-08-19T03:44:16;21.30;85.70
26186;DHT22;20067;48.764;9.176;2022-08-19T03:46:43;21.30;84.90
26186;DHT22;20067;48.764;9.176;2022-08-19T03:49:09;21.30;85.00
26186;DHT22;20067;48.764;9.176;2022-08-19T03:51:37;21.30;85.30
26186;DHT22;20067;48.764;9.176;2022-08-19T03:54:06;21.20;85.50
26186;DHT22;20067;48.764;9.176;2022-08-19T03:56:34;21.20;85.30
26186;DHT22;20067;48.764;9.176;2022-08-19T03:59:00;21.20;85.70
26186;DHT22;20067;48.764;9.176;2022-08-19T04:01:28;21.20;85.20
26186;DHT22;20067;48.764;9.176;2022-08-19T04:03:55;21.20;85.30
26186;DHT22;20067;48.764;9.176;2022-08-19T04:06:26;21.20;85.30
26186;DHT22;20067;48.764;9.176;2022-08-19T04:08:53;21.00;85.60
26186;DHT22;20067;48.764;9.176;2022-08-19T04:11:27;20.80;86.70
26186;DHT22;20067;48.764;9.176;2022-08-19T04:13:53;20.80;86.60
26186;DHT22;20067;48.764;9.176;2022-08-19T04:16:21;20.90;86.60
26186;DHT22;20067;48.764;9.176;2022-08-19T04:18:47;20.90;86.30
26186;DHT22;20067;48.764;9.176;2022-08-19T04:21:22;21.00;86.00
26186;DHT22;20067;48.764;9.176;2022-08-19T04:23:48;21.00;86.30
26186;DHT22;20067;48.764;9.176;2022-08-19T04:26:16;21.20;86.20
26186;DHT22;20067;48.764;9.176;2022-08-19T04:28:44;21.10;85.50
26186;DHT22;20067;48.764;9.176;2022-08-19T04:31:20;21.10;85.50
26186;DHT22;20067;48.764;9.176;2022-08-19T04:33:46;21.00;85.70
26186;DHT22;20067;48.764;9.176;2022-08-19T04:36:37;21.00;85.80
26186;DHT22;20067;48.764;9.176;2022-08-19T04:39:08;20.90;86.60
26186;DHT22;20067;48.764;9.176;2022-08-19T04:41:34;20.90;86.10
26186;DHT22;20067;48.764;9.176;2022-08-19T04:44:19;20.90;86.10
26186;DHT22;20067;48.764;9.176;2022-08-19T04:46:45;20.90;86.10
26186;DHT22;20067;48.764;9.176;2022-08-19T04:49:13;20.90;86.40
26186;DHT22;20067;48.764;9.176;2022-08-19T04:51:41;21.00;86.20
26186;DHT22;20067;48.764;9.176;2022-08-19T04:54:08;21.00;86.10
26186;DHT22;20067;48.764;9.176;2022-08-19T04:56:34;21.00;85.70
26186;DHT22;20067;48.764;9.176;2022-08-19T04:59:00;21.00;85.80
26186;DHT22;20067;48.764;9.176;2022-08-19T05:01:31;20.80;86.40
26186;DHT22;20067;48.764;9.176;2022-08-19T05:04:00;20.70;86.90
26186;DHT22;20067;48.764;9.176;2022-08-19T05:06:26;20.80;86.90
26186;DHT22;20067;48.764;9.176;2022-08-19T05:08:54;20.80;86.60
26186;DHT22;20067;48.764;9.176;2022-08-19T05:11:24;20.80;86.60
26186;DHT22;20067;48.764;9.176;2022-08-19T05:13:51;20.80;86.90
26186;DHT22;20067;48.764;9.176;2022-08-19T05:16:19;20.90;86.60
26186;DHT22;20067;48.764;9.176;2022-08-19T05:18:46;20.90;86.90
26186;DHT22;20067;48.764;9.176;2022-08-19T05:21:31;20.80;86.80
26186;DHT22;20067;48.764;9.176;2022-08-19T05:24:16;20.80;87.20
26186;DHT22;20067;48.764;9.176;2022-08-19T05:26:45;20.80;87.20
26186;DHT22;20067;48.764;9.176;2022-08-19T05:29:13;20.90;86.50
26186;DHT22;20067;48.764;9.176;2022-08-19T05:31:39;20.90;86.70
26186;DHT22;20067;48.764;9.176;2022-08-19T05:34:06;21.00;86.60
26186;DHT22;20067;48.764;9.176;2022-08-19T05:36:38;21.00;86.30
26186;DHT22;20067;48.764;9.176;2022-08-19T05:39:15;20.90;86.70
26186;DHT22;20067;48.764;9.176;2022-08-19T05:41:49;20.90;87.60
26186;DHT22;20067;48.764;9.176;2022-08-19T05:44:16;20.80;86.90
26186;DHT22;20067;48.764;9.176;2022-08-19T05:46:45;20.80;87.10
26186;DHT22;20067;48.764;9.176;2022-08-19T05:49:15;20.80;87.20
26186;DHT22;20067;48.764;9.176;2022-08-19T05:51:41;20.80;87.00
26186;DHT22;20067;48.764;9.176;2022-08-19T05:54:07;20.70;87.00
26186;DHT22;20067;48.764;9.176;2022-08-19T05:56:34;20.70;87.50
26186;DHT22;20067;48.764;9.176;2022-08-19T05:59:05;20.70;87.20
26186;DHT22;20067;48.764;9.176;2022-08-19T06:01:35;20.80;87.40
26186;DHT22;20067;48.764;9.176;2022-08-19T06:04:03;20.80;87.40
26186;DHT22;20067;48.764;9.176;2022-08-19T06:06:28;20.90;87.00
26186;DHT22;20067;48.764;9.176;2022-08-19T06:08:54;20.90;86.80
26186;DHT22;20067;48.764;9.176;2022-08-19T06:14:08;21.00;86.60
26186;DHT22;20067;48.764;9.176;2022-08-19T06:16:36;20.90;86.60
26186;DHT22;20067;48.764;9.176;2022-08-19T06:19:06;20.90;86.70
26186;DHT22;20067;48.764;9.176;2022-08-19T06:21:34;20.80;87.30
26186;DHT22;20067;48.764;9.176;2022-08-19T06:24:01;20.90;87.00
26186;DHT22;20067;48.764;9.176;2022-08-19T06:26:27;20.90;86.60
26186;DHT22;20067;48.764;9.176;2022-08-19T06:28:53;20.90;87.00
26186;DHT22;20067;48.764;9.176;2022-08-19T06:31:24;20.90;87.10
26186;DHT22;20067;48.764;9.176;2022-08-19T06:33:50;21.00;87.20
26186;DHT22;20067;48.764;9.176;2022-08-19T06:36:21;21.00;86.60
26186;DHT22;20067;48.764;9.176;2022-08-19T06:38:47;20.90;86.90
26186;DHT22;20067;48.764;9.176;2022-08-19T06:41:13;21.00;87.00
26186;DHT22;20067;48.764;9.176;2022-08-19T06:43:39;21.00;87.00
26186;DHT22;20067;48.764;9.176;2022-08-19T06:46:10;21.10;87.10
26186;DHT22;20067;48.764;9.176;2022-08-19T06:48:36;21.00;87.40
26186;DHT22;20067;48.764;9.176;2022-08-19T06:51:03;20.90;87.60
26186;DHT22;20067;48.764;9.176;2022-08-19T06:53:31;20.90;88.10
26186;DHT22;20067;48.764;9.176;2022-08-19T06:55:57;20.80;88.00
26186;DHT22;20067;48.764;9.176;2022-08-19T06:58:30;20.80;88.20
26186;DHT22;20067;48.764;9.176;2022-08-19T07:00:59;20.80;89.00
26186;DHT22;20067;48.764;9.176;2022-08-19T07:03:27;20.70;88.80
26186;DHT22;20067;48.764;9.176;2022-08-19T07:05:54;20.70;89.10
26186;DHT22;20067;48.764;9.176;2022-08-19T07:08:19;20.80;88.90
26186;DHT22;20067;48.764;9.176;2022-08-19T07:10:45;20.80;89.80
26186;DHT22;20067;48.764;9.176;2022-08-19T07:13:11;20.90;89.00
26186;DHT22;20067;48.764;9.176;2022-08-19T07:15:37;20.90;88.90
26186;DHT22;20067;48.764;9.176;2022-08-19T07:18:03;21.00;89.30
26186;DHT22;20067;48.764;9.176;2022-08-19T07:20:29;20.90;87.70
26186;DHT22;20067;48.764;9.176;2022-08-19T07:22:54;20.90;88.30
26186;DHT22;20067;48.764;9.176;2022-08-19T07:25:20;20.90;88.00
26186;DHT22;20067;48.764;9.176;2022-08-19T07:27:49;20.90;88.40
26186;DHT22;20067;48.764;9.176;2022-08-19T07:30:16;20.90;88.70
26186;DHT22;20067;48.764;9.176;2022-08-19T07:32:42;21.00;88.30
26186;DHT22;20067;48.764;9.176;2022-08-19T07:35:08;21.00;89.00
26186;DHT22;20067;48.764;9.176;2022-08-19T07:37:35;21.10;87.90
26186;DHT22;20067;48.764;9.176;2022-08-19T07:40:05;21.00;88.20
26186;DHT22;20067;48.764;9.176;2022-08-19T07:42:31;20.90;87.90
26186;DHT22;20067;48.764;9.176;2022-08-19T07:44:58;21.00;88.50
26186;DHT22;20067;48.764;9.176;2022-08-19T07:47:24;21.00;88.20
26186;DHT22;20067;48.764;9.176;2022-08-19T07:49:49;21.00;87.80
26186;DHT22;20067;48.764;9.176;2022-08-19T07:52:15;20.90;87.60
26186;DHT22;20067;48.764;9.176;2022-08-19T07:54:42;20.90;88.00
26186;DHT22;20067;48.764;9.176;2022-08-19T07:57:08;20.90;87.90
26186;DHT22;20067;48.764;9.176;2022-08-19T07:59:34;20.90;88.10
26186;DHT22;20067;48.764;9.176;2022-08-19T08:02:00;20.90;87.90
26186;DHT22;20067;48.764;9.176;2022-08-19T08:04:28;20.60;88.90
26186;DHT22;20067;48.764;9.176;2022-08-19T08:07:13;20.60;88.70
26186;DHT22;20067;48.764;9.176;2022-08-19T08:09:57;20.70;88.70
26186;DHT22;20067;48.764;9.176;2022-08-19T08:12:31;20.70;88.80
26186;DHT22;20067;48.764;9.176;2022-08-19T08:14:59;20.60;88.70
26186;DHT22;20067;48.764;9.176;2022-08-19T08:17:28;20.60;89.20
26186;DHT22;20067;48.764;9.176;2022-08-19T08:19:55;20.60;89.10
26186;DHT22;20067;48.764;9.176;2022-08-19T08:22:23;20.60;89.30
26186;DHT22;20067;48.764;9.176;2022-08-19T08:25:19;20.60;89.40
26186;DHT22;20067;48.764;9.176;2022-08-19T08:27:46;20.70;89.60
26186;DHT22;20067;48.764;9.176;2022-08-19T08:30:22;20.70;89.50
26186;DHT22;20067;48.764;9.176;2022-08-19T08:32:48;20.80;90.20
26186;DHT22;20067;48.764;9.176;2022-08-19T08:35:16;20.60;89.70
26186;DHT22;20067;48.764;9.176;2022-08-19T08:37:44;20.50;90.70
26186;DHT22;20067;48.764;9.176;2022-08-19T08:43:07;20.60;90.70
26186;DHT22;20067;48.764;9.176;2022-08-19T08:45:38;20.70;89.90
26186;DHT22;20067;48.764;9.176;2022-08-19T08:48:31;20.70;89.20
26186;DHT22;20067;48.764;9.176;2022-08-19T08:51:00;20.60;90.30
26186;DHT22;20067;48.764;9.176;2022-08-19T08:53:28;20.60;89.90
26186;DHT22;20067;48.764;9.176;2022-08-19T08:55:57;20.60;90.20
26186;DHT22;20067;48.764;9.176;2022-08-19T08:58:31;20.70;90.60
26186;DHT22;20067;48.764;9.176;2022-08-19T09:01:09;20.70;90.90
26186;DHT22;20067;48.764;9.176;2022-08-19T09:03:37;20.80;90.20
26186;DHT22;20067;48.764;9.176;2022-08-19T09:06:11;20.90;90.60
26186;DHT22;20067;48.764;9.176;2022-08-19T09:11:28;20.80;90.90
26186;DHT22;20067;48.764;9.176;2022-08-19T09:16:47;20.90;89.90
26186;DHT22;20067;48.764;9.176;2022-08-19T09:19:14;21.00;90.30
26186;DHT22;20067;48.764;9.176;2022-08-19T09:21:42;21.00;89.50
26186;DHT22;20067;48.764;9.176;2022-08-19T09:24:08;21.00;89.90
26186;DHT22;20067;48.764;9.176;2022-08-19T09:26:34;21.10;90.40
26186;DHT22;20067;48.764;9.176;2022-08-19T09:29:00;21.10;89.90
26186;DHT22;20067;48.764;9.176;2022-08-19T09:31:29;21.10;90.10
26186;DHT22;20067;48.764;9.176;2022-08-19T09:33:56;21.20;89.90
26186;DHT22;20067;48.764;9.176;2022-08-19T09:36:23;21.20;89.20
26186;DHT22;20067;48.764;9.176;2022-08-19T09:38:51;21.30;89.90
26186;DHT22;20067;48.764;9.176;2022-08-19T09:41:22;21.40;88.40
26186;DHT22;20067;48.764;9.176;2022-08-19T09:43:50;21.40;89.00
26186;DHT22;20067;48.764;9.176;2022-08-19T09:46:19;21.40;88.20
26186;DHT22;20067;48.764;9.176;2022-08-19T09:48:47;21.40;88.90
26186;DHT22;20067;48.764;9.176;2022-08-19T09:51:16;21.50;88.60
26186;DHT22;20067;48.764;9.176;2022-08-19T09:53:44;21.40;88.50
26186;DHT22;20067;48.764;9.176;2022-08-19T09:56:10;21.50;88.00
26186;DHT22;20067;48.764;9.176;2022-08-19T09:58:36;21.50;88.40
26186;DHT22;20067;48.764;9.176;2022-08-19T10:01:03;21.60;87.90
26186;DHT22;20067;48.764;9.176;2022-08-19T10:03:31;21.60;88.30
26186;DHT22;20067;48.764;9.176;2022-08-19T10:05:59;21.70;87.50
26186;DHT22;20067;48.764;9.176;2022-08-19T10:08:28;21.70;87.10
26186;DHT22;20067;48.764;9.176;2022-08-19T10:10:55;21.80;86.90
26186;DHT22;20067;48.764;9.176;2022-08-19T10:13:23;21.80;86.80
26186;DHT22;20067;48.764;9.176;2022-08-19T10:15:52;21.70;86.80
26186;DHT22;20067;48.764;9.176;2022-08-19T10:18:21;21.80;86.90
26186;DHT22;20067;48.764;9.176;2022-08-19T10:20:48;21.80;86.80
26186;DHT22;20067;48.764;9.176;2022-08-19T10:23:15;21.90;86.40
26186;DHT22;20067;48.764;9.176;2022-08-19T10:25:41;21.90;86.50
26186;DHT22;20067;48.764;9.176;2022-08-19T10:28:08;22.00;86.20
26186;DHT22;20067;48.764;9.176;2022-08-19T10:30:38;22.00;86.70
26186;DHT22;20067;48.764;9.176;2022-08-19T10:33:04;22.10;85.90
26186;DHT22;20067;48.764;9.176;2022-08-19T10:35:30;22.00;86.50
26186;DHT22;20067;48.764;9.176;2022-08-19T10:37:56;22.10;85.90
26186;DHT22;20067;48.764;9.176;2022-08-19T10:40:28;22.20;85.60
26186;DHT22;20067;48.764;9.176;2022-08-19T10:42:54;22.30;85.10
26186;DHT22;20067;48.764;9.176;2022-08-19T10:45:21;22.30;85.40
26186;DHT22;20067;48.764;9.176;2022-08-19T10:47:52;22.30;85.00
26186;DHT22;20067;48.764;9.176;2022-08-19T10:50:18;22.30;85.30
26186;DHT22;20067;48.764;9.176;2022-08-19T10:53:05;22.30;85.10
26186;DHT22;20067;48.764;9.176;2022-08-19T10:55:31;22.40;85.00
26186;DHT22;20067;48.764;9.176;2022-08-19T10:58:18;22.50;84.60
26186;DHT22;20067;48.764;9.176;2022-08-19T11:01:05;22.60;84.40
26186;DHT22;20067;48.764;9.176;2022-08-19T11:03:31;22.70;83.20
26186;DHT22;20067;48.764;9.176;2022-08-19T11:06:03;22.70;83.30
26186;DHT22;20067;48.764;9.176;2022-08-19T11:08:29;22.70;83.00
26186;DHT22;20067;48.764;9.176;2022-08-19T11:10:59;22.70;83.40
26186;DHT22;20067;48.764;9.176;2022-08-19T11:13:31;22.70;82.60
26186;DHT22;20067;48.764;9.176;2022-08-19T11:16:07;22.70;82.60
26186;DHT22;20067;48.764;9.176;2022-08-19T11:18:45;22.70;82.00
26186;DHT22;20067;48.764;9.176;2022-08-19T11:21:17;22.60;82.10
26186;DHT22;20067;48.764;9.176;2022-08-19T11:23:46;22.60;82.80
26186;DHT22;20067;48.764;9.176;2022-08-19T11:26:13;22.70;82.60
26186;DHT22;20067;48.764;9.176;2022-08-19T11:28:39;22.70;82.80
26186;DHT22;20067;48.764;9.176;2022-08-19T11:31:10;22.80;82.10
26186;DHT22;20067;48.764;9.176;2022-08-19T11:33:37;22.80;81.30
26186;DHT22;20067;48.764;9.176;2022-08-19T11:36:03;22.90;82.60
26186;DHT22;20067;48.764;9.176;2022-08-19T11:38:28;23.10;81.20
26186;DHT22;20067;48.764;9.176;2022-08-19T11:40:57;23.20;81.20
26186;DHT22;20067;48.764;9.176;2022-08-19T11:43:23;23.20;80.80
26186;DHT22;20067;48.764;9.176;2022-08-19T11:45:49;23.30;82.20
26186;DHT22;20067;48.764;9.176;2022-08-19T11:48:15;23.40;81.00
26186;DHT22;20067;48.764;9.176;2022-08-19T11:50:41;23.50;79.50
26186;DHT22;20067;48.764;9.176;2022-08-19T11:53:08;23.50;79.90
26186;DHT22;20067;48.764;9.176;2022-08-19T11:55:37;23.50;79.20
26186;DHT22;20067;48.764;9.176;2022-08-19T11:58:04;23.40;79.20
26186;DHT22;20067;48.764;9.176;2022-08-19T12:00:32;23.40;79.40
26186;DHT22;20067;48.764;9.176;2022-08-19T12:02:59;23.50;79.20
26186;DHT22;20067;48.764;9.176;2022-08-19T12:05:25;23.60;78.60
26186;DHT22;20067;48.764;9.176;2022-08-19T12:07:51;23.50;78.10
26186;DHT22;20067;48.764;9.176;2022-08-19T12:10:16;23.60;78.90
26186;DHT22;20067;48.764;9.176;2022-08-19T12:12:42;23.70;77.60
26186;DHT22;20067;48.764;9.176;2022-08-19T12:15:11;23.70;77.60
26186;DHT22;20067;48.764;9.176;2022-08-19T12:17:37;23.60;77.60
26186;DHT22;20067;48.764;9.176;2022-08-19T12:20:04;23.60;77.90
26186;DHT22;20067;48.764;9.176;2022-08-19T12:22:30;23.60;79.50
26186;DHT22;20067;48.764;9.176;2022-08-19T12:24:56;23.70;80.20
26186;DHT22;20067;48.764;9.176;2022-08-19T12:27:23;23.70;78.60
26186;DHT22;20067;48.764;9.176;2022-08-19T12:29:49;23.60;77.50
26186;DHT22;20067;48.764;9.176;2022-08-19T12:32:15;23.60;77.50
26186;DHT22;20067;48.764;9.176;2022-08-19T12:34:41;23.60;78.30
26186;DHT22;20067;48.764;9.176;2022-08-19T12:37:07;23.60;77.80
26186;DHT22;20067;48.764;9.176;2022-08-19T12:39:38;23.70;78.70
26186;DHT22;20067;48.764;9.176;2022-08-19T12:42:04;23.70;79.00
26186;DHT22;20067;48.764;9.176;2022-08-19T12:44:31;23.60;79.60
26186;DHT22;20067;48.764;9.176;2022-08-19T12:46:58;23.50;80.70
26186;DHT22;20067;48.764;9.176;2022-08-19T12:49:23;23.40;80.80
26186;DHT22;20067;48.764;9.176;2022-08-19T12:51:50;23.40;81.30
26186;DHT22;20067;48.764;9.176;2022-08-19T12:54:15;23.40;81.50
26186;DHT22;20067;48.764;9.176;2022-08-19T12:56:41;23.40;80.80
26186;DHT22;20067;48.764;9.176;2022-08-19T12:59:07;23.40;81.20
26186;DHT22;20067;48.764;9.176;2022-08-19T13:01:34;23.50;81.40
26186;DHT22;20067;48.764;9.176;2022-08-19T13:04:00;23.60;81.90
26186;DHT22;20067;48.764;9.176;2022-08-19T13:06:26;23.50;83.70
26186;DHT22;20067;48.764;9.176;2022-08-19T13:08:52;23.30;84.50
26186;DHT22;20067;48.764;9.176;2022-08-19T13:11:20;23.30;84.20
26186;DHT22;20067;48.764;9.176;2022-08-19T13:13:47;23.30;84.70
26186;DHT22;20067;48.764;9.176;2022-08-19T13:16:15;23.30;85.50
26186;DHT22;20067;48.764;9.176;2022-08-19T13:18:45;23.20;87.00
26186;DHT22;20067;48.764;9.176;2022-08-19T13:21:18;23.00;87.90
26186;DHT22;20067;48.764;9.176;2022-08-19T13:23:45;23.00;88.50
26186;DHT22;20067;48.764;9.176;2022-08-19T13:26:12;23.00;88.30
26186;DHT22;20067;48.764;9.176;2022-08-19T13:28:39;23.00;88.40
26186;DHT22;20067;48.764;9.176;2022-08-19T13:31:25;22.70;89.80
26186;DHT22;20067;48.764;9.176;2022-08-19T13:34:10;22.30;91.30
26186;DHT22;20067;48.764;9.176;2022-08-19T13:36:37;22.00;91.30
26186;DHT22;20067;48.764;9.176;2022-08-19T13:39:04;22.00;91.30
26186;DHT22;20067;48.764;9.176;2022-08-19T13:41:29;21.90;91.30
26186;DHT22;20067;48.764;9.176;2022-08-19T13:43:56;22.00;91.30
26186;DHT22;20067;48.764;9.176;2022-08-19T13:46:22;22.00;91.30
26186;DHT22;20067;48.764;9.176;2022-08-19T13:48:48;21.90;91.30
26186;DHT22;20067;48.764;9.176;2022-08-19T13:51:15;21.60;91.30
26186;DHT22;20067;48.764;9.176;2022-08-19T13:53:42;21.20;91.30
26186;DHT22;20067;48.764;9.176;2022-08-19T13:56:12;21.10;91.30
26186;DHT22;20067;48.764;9.176;2022-08-19T13:58:38;21.10;91.30
26186;DHT22;20067;48.764;9.176;2022-08-19T14:01:04;21.10;91.30
26186;DHT22;20067;48.764;9.176;2022-08-19T14:03:31;21.10;91.30
26186;DHT22;20067;48.764;9.176;2022-08-19T14:05:58;21.00;91.30
26186;DHT22;20067;48.764;9.176;2022-08-19T14:08:24;20.90;91.30
26186;DHT22;20067;48.764;9.176;2022-08-19T14:10:50;20.80;91.30
26186;DHT22;20067;48.764;9.176;2022-08-19T14:13:18;20.80;91.30
26186;DHT22;20067;48.764;9.176;2022-08-19T14:15:44;20.70;91.30
26186;DHT22;20067;48.764;9.176;2022-08-19T14:18:11;20.60;91.30
26186;DHT22;20067;48.764;9.176;2022-08-19T14:20:37;20.60;91.30
26186;DHT22;20067;48.764;9.176;2022-08-19T14:23:03;20.60;91.30
26186;DHT22;20067;48.764;9.176;2022-08-19T14:25:32;20.70;91.30
26186;DHT22;20067;48.764;9.176;2022-08-19T14:27:58;20.70;91.30
26186;DHT22;20067;48.764;9.176;2022-08-19T14:30:27;20.80;91.30
26186;DHT22;20067;48.764;9.176;2022-08-19T14:32:58;20.90;91.30
26186;DHT22;20067;48.764;9.176;2022-08-19T14:35:25;21.00;91.30
26186;DHT22;20067;48.764;9.176;2022-08-19T14:37:54;21.00;91.30
26186;DHT22;20067;48.764;9.176;2022-08-19T14:40:22;21.00;91.30
26186;DHT22;20067;48.764;9.176;2022-08-19T14:42:54;21.00;91.30
26186;DHT22;20067;48.764;9.176;2022-08-19T14:45:31;21.10;91.30
26186;DHT22;20067;48.764;9.176;2022-08-19T14:47:57;21.30;91.30
26186;DHT22;20067;48.764;9.176;2022-08-19T14:50:24;21.50;91.30
26186;DHT22;20067;48.764;9.176;2022-08-19T14:52:56;21.60;91.30
26186;DHT22;20067;48.764;9.176;2022-08-19T14:55:22;21.80;91.30
26186;DHT22;20067;48.764;9.176;2022-08-19T14:57:48;22.00;91.30
26186;DHT22;20067;48.764;9.176;2022-08-19T15:00:16;22.20;91.30
26186;DHT22;20067;48.764;9.176;2022-08-19T15:02:42;22.40;91.30
26186;DHT22;20067;48.764;9.176;2022-08-19T15:05:09;22.50;91.30
26186;DHT22;20067;48.764;9.176;2022-08-19T15:07:36;22.50;91.10
26186;DHT22;20067;48.764;9.176;2022-08-19T15:10:03;22.50;90.30
26186;DHT22;20067;48.764;9.176;2022-08-19T15:12:29;22.60;90.60
26186;DHT22;20067;48.764;9.176;2022-08-19T15:14:55;22.60;90.50
26186;DHT22;20067;48.764;9.176;2022-08-19T15:17:21;22.70;89.70
26186;DHT22;20067;48.764;9.176;2022-08-19T15:19:47;22.80;89.50
26186;DHT22;20067;48.764;9.176;2022-08-19T15:22:12;22.80;88.80
26186;DHT22;20067;48.764;9.176;2022-08-19T15:24:38;22.80;89.20
26186;DHT22;20067;48.764;9.176;2022-08-19T15:27:04;22.70;89.10
26186;DHT22;20067;48.764;9.176;2022-08-19T15:29:31;22.80;89.10
26186;DHT22;20067;48.764;9.176;2022-08-19T15:31:58;23.00;89.30
26186;DHT22;20067;48.764;9.176;2022-08-19T15:34:24;23.20;88.40
26186;DHT22;20067;48.764;9.176;2022-08-19T15:36:54;23.30;87.80
26186;DHT22;20067;48.764;9.176;2022-08-19T15:39:20;23.10;87.70
26186;DHT22;20067;48.764;9.176;2022-08-19T15:41:46;22.70;89.50
26186;DHT22;20067;48.764;9.176;2022-08-19T15:44:14;22.60;89.70
26186;DHT22;20067;48.764;9.176;2022-08-19T15:46:42;22.50;90.20
26186;DHT22;20067;48.764;9.176;2022-08-19T15:49:10;22.50;90.80